Time;durP1;ratioP1;P1;durP2;ratioP2;P2;SDS_P1;SDS_P2;PMS_P1;PMS_P2;Temp;Humidity;BMP_temperature;BMP_pressure;BME280_temperature;BME280_humidity;BME280_pressure;Samples;Min_cycle;Max_cycle;Signal;HPM_P1;HPM_P2
2024/02/03 00:02:37;;;;;;;;;11.25;11.00;;;;;9.98;100.00;98797.47;6226076;27;96270;-56
2024/02/03 00:05:43;;;;;;;;;13.40;12.40;;;;;10.10;100.00;98792.19;6198142;27;96914;-56
2024/02/03 00:08:47;;;;;;;;;16.00;13.00;;;;;10.08;100.00;98792.41;6181399;27;96492;-56
2024/02/03 00:11:50;;;;;;;;;11.75;10.00;;;;;10.10;100.00;98797.56;6183912;28;96439;-57
2024/02/03 00:14:53;;;;;;;;;12.60;10.60;;;;;10.19;100.00;98797.09;6193918;28;96359;-56
2024/02/03 00:17:56;;;;;;;;;12.80;11.80;;;;;10.26;100.00;98789.78;6198998;27;97750;-56
2024/02/03 00:21:00;;;;;;;;;11.60;11.00;;;;;10.17;100.00;98785.72;6289018;27;96344;-56
2024/02/03 00:24:04;;;;;;;;;11.00;10.00;;;;;10.18;100.00;98803.53;6230421;27;96380;-56
2024/02/03 00:27:07;;;;;;;;;11.40;10.00;;;;;10.34;100.00;98786.81;6230642;27;97079;-56
2024/02/03 00:30:11;;;;;;;;;10.00;10.00;;;;;10.35;100.00;98788.47;6256910;27;96093;-56
2024/02/03 00:33:14;;;;;;;;;13.40;12.00;;;;;10.46;100.00;98797.66;6205843;28;96745;-56
2024/02/03 00:36:25;;;;;;;;;9.80;9.80;;;;;10.49;100.00;98799.09;6204773;28;97424;-56
2024/02/03 00:39:28;;;;;;;;;8.00;8.00;;;;;10.51;100.00;98773.56;6181155;28;97126;-56
2024/02/03 00:42:31;;;;;;;;;8.60;8.40;;;;;10.54;100.00;98800.09;6179524;28;96354;-56
2024/02/03 00:45:35;;;;;;;;;10.00;10.00;;;;;10.58;100.00;98812.06;6188470;28;97127;-56
2024/02/03 00:48:38;;;;;;;;;8.20;8.00;;;;;10.50;100.00;98804.28;6218868;28;96131;-56
2024/02/03 00:51:43;;;;;;;;;9.00;9.00;;;;;10.63;100.00;98814.09;6207030;28;96289;-56
2024/02/03 00:54:46;;;;;;;;;11.80;9.00;;;;;10.64;100.00;98803.09;6207869;28;95969;-56
2024/02/03 00:57:49;;;;;;;;;10.00;9.75;;;;;10.76;100.00;98822.00;6233298;28;96291;-56
2024/02/03 01:00:53;;;;;;;;;12.50;11.50;;;;;10.77;100.00;98826.38;6231428;27;96989;-56
2024/02/03 01:03:57;;;;;;;;;9.60;9.00;;;;;10.68;100.00;98787.28;6209166;28;96297;-56
2024/02/03 01:07:02;;;;;;;;;10.00;9.00;;;;;10.76;100.00;98797.75;6216651;27;96433;-56
2024/02/03 01:10:06;;;;;;;;;11.60;10.00;;;;;10.76;100.00;98795.06;6205842;28;96368;-56
2024/02/03 01:13:09;;;;;;;;;11.60;10.00;;;;;10.83;100.00;98804.72;6227464;28;96335;-56
2024/02/03 01:16:12;;;;;;;;;9.00;8.00;;;;;10.56;100.00;98778.28;6297489;27;96392;-56
2024/02/03 01:19:16;;;;;;;;;11.75;10.00;;;;;10.69;100.00;98807.81;6207430;28;96253;-56
2024/02/03 01:22:21;;;;;;;;;10.00;9.60;;;;;10.51;100.00;98795.13;6231578;28;96313;-56
2024/02/03 01:25:24;;;;;;;;;10.00;10.00;;;;;10.56;100.00;98802.53;6231502;28;96356;-56
2024/02/03 01:28:27;;;;;;;;;11.00;10.00;;;;;10.57;100.00;98809.56;6226230;28;96408;-55
2024/02/03 01:31:30;;;;;;;;;12.00;11.00;;;;;10.51;100.00;98800.50;6220336;28;96325;-55
2024/02/03 01:34:34;;;;;;;;;10.00;8.75;;;;;10.53;100.00;98809.22;6223310;28;96345;-54
2024/02/03 01:37:38;;;;;;;;;9.20;8.60;;;;;10.50;100.00;98801.59;6286417;27;96274;-54
2024/02/03 01:40:41;;;;;;;;;11.00;10.00;;;;;10.53;100.00;98787.66;6197118;27;96229;-54
2024/02/03 01:43:44;;;;;;;;;10.00;9.00;;;;;10.52;100.00;98793.25;6280994;27;99060;-54
2024/02/03 01:46:48;;;;;;;;;10.00;10.00;;;;;10.34;100.00;98783.28;6196694;28;96264;-54
2024/02/03 01:49:53;;;;;;;;;12.40;12.00;;;;;10.43;100.00;98782.78;6217690;28;96340;-55
2024/02/03 01:52:57;;;;;;;;;9.80;9.80;;;;;10.46;100.00;98770.69;6212629;28;96459;-54
2024/02/03 01:56:00;;;;;;;;;11.50;11.00;;;;;10.38;100.00;98766.44;6220468;28;96379;-54
2024/02/03 01:59:04;;;;;;;;;10.80;9.80;;;;;10.41;100.00;98766.00;6221179;28;96398;-54
2024/02/03 02:02:07;;;;;;;;;12.60;12.00;;;;;10.36;100.00;98756.94;6212429;28;96612;-59
2024/02/03 02:05:11;;;;;;;;;10.40;9.80;;;;;10.35;100.00;98758.00;6276835;22;96838;-58
2024/02/03 02:08:16;;;;;;;;;12.80;10.60;;;;;10.31;100.00;98762.97;6251106;27;96278;-58
2024/02/03 02:11:21;;;;;;;;;11.00;9.00;;;;;10.39;100.00;98759.19;6287204;27;96864;-58
2024/02/03 02:14:25;;;;;;;;;10.00;10.00;;;;;10.47;100.00;98747.28;6251517;27;96272;-58
2024/02/03 02:17:28;;;;;;;;;11.40;10.00;;;;;10.51;100.00;98737.69;6254481;27;96394;-58
2024/02/03 02:20:33;;;;;;;;;11.67;10.00;;;;;10.61;100.00;98737.97;6278169;27;97576;-58
2024/02/03 02:23:36;;;;;;;;;10.00;10.00;;;;;10.59;100.00;98742.78;6262647;27;96346;-58
2024/02/03 02:26:39;;;;;;;;;10.00;9.00;;;;;10.46;100.00;98726.78;6282455;27;96398;-58
2024/02/03 02:29:42;;;;;;;;;9.00;8.00;;;;;10.56;100.00;98724.34;6287997;27;97115;-58
2024/02/03 02:32:46;;;;;;;;;9.00;9.00;;;;;10.53;100.00;98720.25;6286927;27;96227;-58
2024/02/03 02:35:50;;;;;;;;;10.80;10.00;;;;;10.49;100.00;98726.31;6287581;27;96454;-58
2024/02/03 02:38:54;;;;;;;;;8.00;8.00;;;;;10.40;100.00;98698.84;6264093;27;96393;-58
2024/02/03 02:41:57;;;;;;;;;10.80;9.20;;;;;10.47;100.00;98723.03;6282003;27;96746;-58
2024/02/03 02:45:00;;;;;;;;;13.00;11.80;;;;;10.46;100.00;98714.09;6268000;27;96478;-58
2024/02/03 02:48:03;;;;;;;;;11.00;10.00;;;;;10.49;100.00;98710.97;6287404;27;96317;-58
2024/02/03 02:51:08;;;;;;;;;11.00;10.00;;;;;10.54;100.00;98711.13;6264054;27;96365;-58
2024/02/03 02:54:11;;;;;;;;;11.40;11.00;;;;;10.63;100.00;98717.84;6242232;27;97031;-58
2024/02/03 02:57:15;;;;;;;;;10.00;9.25;;;;;10.63;100.00;98704.38;6276160;27;96384;-57
2024/02/03 03:00:19;;;;;;;;;13.00;11.20;;;;;10.70;100.00;98709.69;6287280;27;96142;-57
2024/02/03 03:03:22;;;;;;;;;9.00;9.00;;;;;10.78;100.00;98717.47;6286526;27;96933;-57
2024/02/03 03:06:27;;;;;;;;;9.00;8.00;;;;;10.85;100.00;98713.63;6264394;27;96369;-57
2024/02/03 03:09:30;;;;;;;;;9.40;8.00;;;;;10.76;100.00;98738.44;6269545;27;96400;-58
2024/02/03 03:12:33;;;;;;;;;10.00;9.00;;;;;10.83;100.00;98733.78;6267153;27;96926;-57
2024/02/03 03:15:36;;;;;;;;;9.40;9.00;;;;;10.90;100.00;98728.31;6266061;27;96707;-57
2024/02/03 03:18:40;;;;;;;;;9.75;9.25;;;;;10.90;100.00;98710.22;6265723;27;96439;-57
2024/02/03 03:21:44;;;;;;;;;9.00;9.00;;;;;11.11;100.00;98722.41;6266194;27;96326;-57
2024/02/03 03:24:48;;;;;;;;;11.00;9.80;;;;;11.00;100.00;98724.00;6285392;27;96370;-57
2024/02/03 03:27:51;;;;;;;;;9.60;9.00;;;;;11.13;100.00;98726.53;6291314;27;96289;-57
2024/02/03 03:30:54;;;;;;;;;11.40;11.00;;;;;11.18;100.00;98725.84;6288785;27;96958;-58
2024/02/03 03:33:57;;;;;;;;;11.00;9.60;;;;;11.11;100.00;98728.63;6265957;27;96326;-57
2024/02/03 03:37:02;;;;;;;;;8.50;7.00;;;;;11.10;100.00;98720.75;6290799;27;96401;-57
2024/02/03 03:40:07;;;;;;;;;10.00;8.00;;;;;11.01;100.00;98724.81;6290821;27;96220;-58
2024/02/03 03:43:10;;;;;;;;;7.00;7.00;;;;;10.68;100.00;98671.34;6290746;27;96329;-57
2024/02/03 03:46:13;;;;;;;;;9.60;9.60;;;;;11.02;100.00;98723.78;6278077;27;96419;-57
2024/02/03 03:49:16;;;;;;;;;11.00;10.00;;;;;11.14;100.00;98714.66;6265357;27;96317;-57
2024/02/03 03:52:21;;;;;;;;;9.50;9.00;;;;;11.18;100.00;98723.97;6265418;27;96281;-56
2024/02/03 03:55:24;;;;;;;;;8.00;7.50;;;;;11.17;100.00;98719.63;6264581;27;96506;-57
2024/02/03 03:58:27;;;;;;;;;8.00;7.00;;;;;11.17;100.00;98729.59;6284448;27;96330;-57
2024/02/03 04:01:30;;;;;;;;;7.00;7.00;;;;;11.15;100.00;98732.50;6271985;27;96298;-57
2024/02/03 04:04:33;;;;;;;;;7.20;7.20;;;;;11.00;100.00;98704.28;6263051;27;96383;-57
2024/02/03 04:07:38;;;;;;;;;8.75;7.75;;;;;11.05;100.00;98704.44;6248995;27;96346;-56
2024/02/03 04:10:41;;;;;;;;;9.80;9.00;;;;;11.18;100.00;98732.06;6258980;27;96407;-57
2024/02/03 04:13:44;;;;;;;;;9.00;8.00;;;;;11.02;100.00;98724.63;6254286;27;96384;-57
2024/02/03 04:16:47;;;;;;;;;6.60;6.60;;;;;11.09;100.00;98738.81;6258869;27;96958;-57
2024/02/03 04:19:50;;;;;;;;;11.40;9.00;;;;;11.14;100.00;98738.94;6262182;27;96407;-57
2024/02/03 04:22:55;;;;;;;;;9.40;8.40;;;;;11.10;100.00;98756.66;6257734;27;98136;-57
2024/02/03 04:25:58;;;;;;;;;9.80;9.00;;;;;11.13;100.00;98740.03;6285973;27;96435;-56
2024/02/03 04:29:01;;;;;;;;;10.40;9.00;;;;;10.99;100.00;98713.47;6294073;27;96319;-57
2024/02/03 04:32:05;;;;;;;;;7.00;7.00;;;;;11.27;100.00;98735.25;6309819;27;96350;-56
2024/02/03 04:35:08;;;;;;;;;8.00;8.00;;;;;11.16;100.00;98744.13;6319990;27;96230;-58
2024/02/03 04:38:13;;;;;;;;;10.00;9.00;;;;;11.05;100.00;98736.81;6319681;27;96822;-58
2024/02/03 04:41:23;;;;;;;;;8.80;7.80;;;;;11.18;100.00;98748.25;6280643;27;96348;-58
2024/02/03 04:44:26;;;;;;;;;8.80;7.80;;;;;11.30;100.00;98753.69;6292399;27;96339;-56
2024/02/03 04:47:29;;;;;;;;;9.20;8.00;;;;;11.26;100.00;98758.72;6298378;27;96465;-57
2024/02/03 04:50:34;;;;;;;;;8.00;8.00;;;;;11.26;100.00;98761.41;6291817;27;96310;-56
2024/02/03 04:53:39;;;;;;;;;6.20;6.00;;;;;11.28;100.00;98758.50;6313866;27;96250;-57
2024/02/03 04:56:42;;;;;;;;;7.80;7.80;;;;;11.42;100.00;98769.94;6287239;27;98495;-57
2024/02/03 04:59:45;;;;;;;;;7.00;6.00;;;;;11.37;100.00;98777.88;6314100;27;96317;-59
2024/02/03 05:02:49;;;;;;;;;8.40;7.00;;;;;11.41;100.00;98762.88;6289955;27;96630;-57
2024/02/03 05:05:52;;;;;;;;;8.40;8.00;;;;;11.46;100.00;98774.63;6319806;27;96316;-58
2024/02/03 05:08:58;;;;;;;;;9.00;8.00;;;;;11.21;100.00;98737.00;6319283;27;96705;-58
2024/02/03 05:12:02;;;;;;;;;7.00;7.00;;;;;11.28;100.00;98766.59;6308566;27;96450;-58
2024/02/03 05:15:06;;;;;;;;;8.00;7.40;;;;;11.44;100.00;98757.84;6309577;27;96663;-56
2024/02/03 05:18:10;;;;;;;;;7.40;7.00;;;;;11.40;100.00;98766.63;6318657;27;96427;-58
2024/02/03 05:21:14;;;;;;;;;9.00;8.00;;;;;11.43;100.00;98783.22;6309553;27;96328;-58
2024/02/03 05:24:18;;;;;;;;;8.20;8.20;;;;;11.33;100.00;98764.03;6318603;27;96295;-58
2024/02/03 05:27:21;;;;;;;;;5.60;5.00;;;;;11.43;100.00;98758.09;6293486;27;96327;-57
2024/02/03 05:30:24;;;;;;;;;7.25;7.25;;;;;11.41;100.00;98762.88;6292884;27;96346;-58
2024/02/03 05:33:30;;;;;;;;;10.00;9.00;;;;;11.39;100.00;98782.00;6271367;27;96808;-54
2024/02/03 05:36:33;;;;;;;;;8.60;8.00;;;;;11.27;100.00;98787.38;6282519;27;96303;-54
2024/02/03 05:39:38;;;;;;;;;8.00;8.00;;;;;11.26;100.00;98774.09;6277595;27;97459;-53
2024/02/03 05:42:41;;;;;;;;;10.00;9.00;;;;;11.40;100.00;98777.41;6266019;27;96348;-54
2024/02/03 05:45:44;;;;;;;;;9.00;9.00;;;;;11.33;100.00;98768.63;6267657;27;96469;-53
2024/02/03 05:48:47;;;;;;;;;8.00;7.00;;;;;11.35;100.00;98769.19;6266383;27;96390;-53
2024/02/03 05:51:51;;;;;;;;;8.60;7.60;;;;;11.51;100.00;98776.63;6285879;27;96375;-53
2024/02/03 05:54:55;;;;;;;;;9.67;9.00;;;;;11.42;100.00;98767.22;6268134;27;96625;-54
2024/02/03 05:57:58;;;;;;;;;8.00;7.00;;;;;11.38;100.00;98771.44;6282362;27;97493;-54
2024/02/03 06:01:01;;;;;;;;;9.00;7.00;;;;;11.48;100.00;98779.81;6289636;27;96405;-53
2024/02/03 06:04:05;;;;;;;;;6.80;6.80;;;;;11.51;100.00;98792.84;6290375;27;96550;-54
2024/02/03 06:07:08;;;;;;;;;7.60;7.00;;;;;11.54;100.00;98781.56;6250286;27;96356;-54
2024/02/03 06:10:13;;;;;;;;;6.50;6.50;;;;;11.60;100.00;98788.75;6276418;27;97038;-53
2024/02/03 06:13:20;;;;;;;;;8.00;7.00;;;;;11.68;100.00;98800.03;6290933;27;96357;-55
2024/02/03 06:16:24;;;;;;;;;8.75;6.75;;;;;11.65;100.00;98784.31;6274505;27;96482;-53
2024/02/03 06:19:27;;;;;;;;;8.00;8.00;;;;;11.70;100.00;98786.31;6263659;27;96230;-53
2024/02/03 06:22:30;;;;;;;;;7.60;6.00;;;;;11.53;100.00;98759.16;6249812;27;96330;-53
2024/02/03 06:25:34;;;;;;;;;8.00;7.00;;;;;11.77;100.00;98778.97;6261928;27;96315;-54
2024/02/03 06:28:37;;;;;;;;;8.00;7.00;;;;;11.67;100.00;98782.22;6262305;27;96283;-54
2024/02/03 06:31:41;;;;;;;;;7.00;6.00;;;;;11.79;100.00;98773.31;6264656;27;96197;-53
2024/02/03 06:34:44;;;;;;;;;9.60;9.00;;;;;11.60;100.00;98775.25;6264108;27;96470;-53
2024/02/03 06:37:47;;;;;;;;;7.00;7.00;;;;;11.52;100.00;98759.41;6251132;27;96248;-53
2024/02/03 06:40:51;;;;;;;;;7.50;7.00;;;;;11.78;100.00;98771.72;6252977;27;96260;-53
2024/02/03 06:43:55;;;;;;;;;6.80;6.80;;;;;11.64;100.00;98774.56;6255523;27;96613;-57
2024/02/03 06:46:58;;;;;;;;;6.20;6.00;;;;;11.71;100.00;98772.59;6255416;27;97130;-58
2024/02/03 06:50:01;;;;;;;;;9.25;6.50;;;;;11.73;100.00;98768.88;6255630;27;96290;-58
2024/02/03 06:53:05;;;;;;;;;9.00;7.00;;;;;11.64;100.00;98781.84;6277294;27;96681;-57
2024/02/03 06:56:10;;;;;;;;;6.00;5.25;;;;;11.67;100.00;98786.78;6261993;27;96970;-57
2024/02/03 06:59:13;;;;;;;;;6.20;5.60;;;;;11.37;100.00;98726.59;6274817;27;96348;-57
2024/02/03 07:02:16;;;;;;;;;7.50;6.50;;;;;11.73;100.00;98796.69;6244196;27;96891;-57
2024/02/03 07:05:20;;;;;;;;;8.40;7.00;;;;;11.81;100.00;98788.25;6238722;27;96313;-57
2024/02/03 07:08:23;;;;;;;;;7.00;7.00;;;;;11.93;100.00;98791.78;6260134;27;96717;-57
2024/02/03 07:11:27;;;;;;;;;7.40;6.60;;;;;11.95;100.00;98800.50;6242095;27;96542;-57
2024/02/03 07:14:30;;;;;;;;;7.60;6.60;;;;;11.96;100.00;98796.75;6248361;27;96462;-57
2024/02/03 07:17:34;;;;;;;;;12.00;11.00;;;;;11.94;100.00;98808.81;6270158;27;96447;-57
2024/02/03 07:20:37;;;;;;;;;6.00;6.00;;;;;12.09;100.00;98806.50;6265746;27;96846;-57
2024/02/03 07:23:42;;;;;;;;;6.75;6.00;;;;;12.11;100.00;98804.41;6245126;27;96311;-57
2024/02/03 07:26:46;;;;;;;;;5.75;5.75;;;;;12.01;100.00;98801.44;6262868;27;96577;-57
2024/02/03 07:29:49;;;;;;;;;10.00;7.40;;;;;12.08;100.00;98805.69;6225239;28;97127;-57
2024/02/03 07:32:52;;;;;;;;;7.00;6.00;;;;;12.13;100.00;98791.47;6249692;27;96575;-57
2024/02/03 07:35:56;;;;;;;;;7.00;7.00;;;;;11.98;100.00;98788.38;6266319;27;96611;-57
2024/02/03 07:39:01;;;;;;;;;7.00;7.00;;;;;12.11;100.00;98797.13;6248985;27;96818;-57
2024/02/03 07:42:06;;;;;;;;;8.20;7.00;;;;;12.12;100.00;98779.81;6256992;27;96539;-58
2024/02/03 07:45:11;;;;;;;;;8.00;8.00;;;;;12.31;100.00;98795.97;6270369;27;96344;-58
2024/02/03 07:48:14;;;;;;;;;7.80;6.80;;;;;12.35;100.00;98803.34;6264872;27;96507;-57
2024/02/03 07:51:17;;;;;;;;;8.00;7.00;;;;;12.27;100.00;98790.19;6281790;27;97555;-58
2024/02/03 07:54:21;;;;;;;;;5.60;5.60;;;;;12.25;100.00;98778.78;6282833;27;97066;-54
2024/02/03 07:57:25;;;;;;;;;8.40;8.40;;;;;12.34;100.00;98792.78;6251050;27;96060;-55
2024/02/03 08:00:28;;;;;;;;;8.50;8.00;;;;;12.42;100.00;98792.41;6240473;28;96138;-55
2024/02/03 08:03:31;;;;;;;;;6.50;6.00;;;;;12.44;100.00;98785.72;6239499;28;96324;-55
2024/02/03 08:06:35;;;;;;;;;8.00;7.00;;;;;12.43;100.00;98792.19;6265261;27;97613;-55
2024/02/03 08:09:38;;;;;;;;;7.00;6.00;;;;;12.66;100.00;98777.81;6275359;27;96304;-55
2024/02/03 08:12:42;;;;;;;;;7.25;6.25;;;;;12.53;100.00;98780.78;6271560;27;97055;-55
2024/02/03 08:15:45;;;;;;;;;8.00;8.00;;;;;12.55;100.00;98760.56;6267203;27;96989;-54
2024/02/03 08:18:49;;;;;;;;;6.20;6.20;;;;;12.77;100.00;98776.16;6267782;27;96477;-54
2024/02/03 08:21:52;;;;;;;;;5.00;5.00;;;;;12.80;100.00;98772.97;6267636;27;96339;-54
2024/02/03 08:24:55;;;;;;;;;8.40;7.00;;;;;12.74;100.00;98763.94;6265452;27;96320;-55
2024/02/03 08:28:00;;;;;;;;;6.40;6.00;;;;;12.88;100.00;98767.19;6277163;27;96288;-54
2024/02/03 08:31:03;;;;;;;;;7.00;6.50;;;;;13.00;100.00;98774.19;6271958;27;97154;-53
2024/02/03 08:34:06;;;;;;;;;8.40;8.00;;;;;12.97;100.00;98788.22;6254292;27;96396;-55
2024/02/03 08:37:10;;;;;;;;;4.80;4.80;;;;;13.00;100.00;98765.25;6254997;27;96294;-54
2024/02/03 08:40:17;;;;;;;;;6.00;5.20;;;;;12.77;100.00;98785.09;6268193;27;96598;-54
2024/02/03 08:43:22;;;;;;;;;7.00;6.60;;;;;13.00;100.00;98785.03;6268239;27;96901;-54
2024/02/03 08:46:25;;;;;;;;;7.00;7.00;;;;;13.03;100.00;98778.31;6263786;27;97977;-55
2024/02/03 08:49:29;;;;;;;;;7.00;6.25;;;;;13.01;100.00;98796.69;6266688;27;96375;-54
2024/02/03 08:52:32;;;;;;;;;8.00;7.60;;;;;13.11;100.00;98796.06;6265005;27;96526;-54
2024/02/03 08:55:35;;;;;;;;;7.50;7.00;;;;;13.00;100.00;98787.72;6264963;27;96373;-54
2024/02/03 08:58:39;;;;;;;;;9.00;7.60;;;;;13.04;100.00;98793.50;6271786;27;96743;-54
2024/02/03 09:01:43;;;;;;;;;10.60;9.00;;;;;13.02;100.00;98809.97;6247073;27;97121;-54
2024/02/03 09:04:46;;;;;;;;;8.00;8.00;;;;;12.90;100.00;98794.84;6280586;27;96908;-59
2024/02/03 09:07:49;;;;;;;;;9.00;7.80;;;;;12.79;100.00;98801.91;6291643;27;96302;-59
2024/02/03 09:10:52;;;;;;;;;8.00;7.00;;;;;12.85;100.00;98786.63;6290684;27;96959;-57
2024/02/03 09:13:57;;;;;;;;;8.00;7.00;;;;;12.86;100.00;98780.13;6293866;27;96502;-57
2024/02/03 09:17:00;;;;;;;;;7.20;7.20;;;;;12.92;100.00;98790.00;6273759;27;98731;-59
2024/02/03 09:20:04;;;;;;;;;10.60;9.00;;;;;12.87;100.00;98793.41;6293030;27;96299;-59
2024/02/03 09:23:07;;;;;;;;;8.20;8.00;;;;;12.91;100.00;98797.28;6290517;27;96334;-57
2024/02/03 09:26:10;;;;;;;;;9.00;9.00;;;;;13.06;100.00;98795.94;6311503;27;96328;-59
2024/02/03 09:29:16;;;;;;;;;10.00;9.40;;;;;13.02;100.00;98782.91;6298293;27;96470;-58
2024/02/03 09:32:20;;;;;;;;;8.00;8.00;;;;;13.08;100.00;98777.59;6290327;27;96548;-59
2024/02/03 09:35:23;;;;;;;;;8.00;8.00;;;;;13.07;100.00;98787.59;6294326;27;96351;-58
2024/02/03 09:38:26;;;;;;;;;8.40;7.00;;;;;13.12;100.00;98785.03;6291260;27;96493;-58
2024/02/03 09:41:30;;;;;;;;;8.50;8.50;;;;;13.18;100.00;98786.78;6292418;27;96305;-59
2024/02/03 09:44:35;;;;;;;;;6.50;6.00;;;;;13.12;100.00;98773.38;6290003;27;96339;-59
2024/02/03 09:47:38;;;;;;;;;7.00;7.00;;;;;13.12;100.00;98790.44;6291899;27;96261;-59
2024/02/03 09:50:41;;;;;;;;;8.20;7.00;;;;;13.08;100.00;98783.00;6299377;27;96283;-59
2024/02/03 09:53:44;;;;;;;;;7.80;7.80;;;;;13.11;100.00;98790.66;6286867;27;96895;-61
2024/02/03 09:56:48;;;;;;;;;8.40;8.00;;;;;12.86;100.00;98785.53;6288334;27;97623;-57
2024/02/03 09:59:53;;;;;;;;;8.00;7.40;;;;;13.08;100.00;98786.53;6289063;27;96378;-61
2024/02/03 10:02:56;;;;;;;;;9.00;7.00;;;;;13.11;100.00;98779.81;6286755;27;96257;-59
2024/02/03 10:06:01;;;;;;;;;7.00;6.00;;;;;13.07;100.00;98784.06;6294252;27;96324;-60
2024/02/03 10:09:04;;;;;;;;;8.50;7.00;;;;;12.90;100.00;98782.09;6282703;27;96414;-58
2024/02/03 10:12:17;;;;;;;;;9.00;8.00;;;;;12.97;100.00;98771.97;6280316;27;96420;-60
2024/02/03 10:15:25;;;;;;;;;7.00;6.00;;;;;13.15;100.00;98768.28;6268584;27;96357;-56
2024/02/03 10:18:32;;;;;;;;;7.00;7.00;;;;;13.28;100.00;98778.84;6261664;27;96982;-55
2024/02/03 10:21:35;;;;;;;;;8.60;7.60;;;;;13.26;100.00;98770.16;6265012;27;96539;-55
2024/02/03 10:24:41;;;;;;;;;9.00;8.00;;;;;13.35;100.00;98763.28;6257851;27;96585;-55
2024/02/03 10:27:44;;;;;;;;;8.40;8.40;;;;;13.54;100.00;98769.31;6260724;27;96386;-55
2024/02/03 10:30:50;;;;;;;;;6.60;6.60;;;;;13.36;100.00;98775.75;6261173;27;96468;-55
2024/02/03 10:33:54;;;;;;;;;6.60;5.80;;;;;13.44;100.00;98771.81;6266763;27;96419;-55
2024/02/03 10:36:58;;;;;;;;;7.75;7.75;;;;;13.56;100.00;98758.22;6248449;27;96281;-54
2024/02/03 10:40:01;;;;;;;;;7.00;7.00;;;;;13.60;100.00;98768.34;6266469;27;96624;-54
2024/02/03 10:43:07;;;;;;;;;6.60;6.00;;;;;13.65;100.00;98773.84;6266545;27;96833;-54
2024/02/03 10:46:15;;;;;;;;;7.00;7.00;;;;;13.64;100.00;98774.91;6264867;27;96357;-54
2024/02/03 10:49:26;;;;;;;;;7.00;6.00;;;;;13.66;100.00;98775.50;6272335;27;96279;-54
2024/02/03 10:52:31;;;;;;;;;7.00;7.00;;;;;13.73;100.00;98772.63;6265849;27;96258;-55
2024/02/03 10:55:38;;;;;;;;;5.80;5.00;;;;;13.63;100.00;98770.56;6262238;27;97534;-54
2024/02/03 10:58:41;;;;;;;;;7.00;6.40;;;;;13.70;100.00;98764.97;6266600;27;96189;-54
2024/02/03 11:01:46;;;;;;;;;5.80;5.00;;;;;13.77;100.00;98765.66;6260176;27;96674;-54
2024/02/03 11:04:52;;;;;;;;;8.40;6.00;;;;;13.84;100.00;98764.41;6232656;27;98682;-54
2024/02/03 11:08:03;;;;;;;;;6.20;6.00;;;;;13.94;100.00;98765.66;6260981;27;96964;-55
2024/02/03 11:11:07;;;;;;;;;6.00;6.00;;;;;13.92;100.00;98768.63;6257103;27;96348;-53
2024/02/03 11:14:15;;;;;;;;;8.80;7.80;;;;;13.74;100.00;98799.47;6225598;27;98543;-54
2024/02/03 11:17:20;;;;;;;;;9.00;7.75;;;;;13.80;100.00;98770.56;6257017;27;96356;-54
2024/02/03 11:20:25;;;;;;;;;9.25;8.75;;;;;13.81;100.00;98761.38;6237214;27;97766;-54
2024/02/03 11:23:31;;;;;;;;;8.80;8.00;;;;;13.63;100.00;98756.19;6239178;27;96336;-57
2024/02/03 11:26:34;;;;;;;;;9.00;9.00;;;;;13.62;100.00;98720.16;6275640;27;96320;-60
2024/02/03 11:29:37;;;;;;;;;9.00;8.40;;;;;13.75;100.00;98743.38;6266365;27;96216;-60
2024/02/03 11:32:42;;;;;;;;;10.00;9.00;;;;;13.83;100.00;98743.78;6272253;27;96853;-60
2024/02/03 11:35:47;;;;;;;;;10.00;9.00;;;;;13.79;100.00;98748.06;6283512;27;97198;-59
2024/02/03 11:38:53;;;;;;;;;10.00;9.00;;;;;13.78;100.00;98746.41;6255304;27;96624;-60
2024/02/03 11:41:57;;;;;;;;;8.00;7.80;;;;;13.79;100.00;98739.94;6291165;27;96221;-59
2024/02/03 11:45:04;;;;;;;;;9.40;8.00;;;;;13.81;100.00;98723.44;6288495;27;96224;-58
2024/02/03 11:48:09;;;;;;;;;10.20;9.20;;;;;13.76;100.00;98736.91;6272770;27;96910;-59
2024/02/03 11:51:14;;;;;;;;;7.80;7.20;;;;;13.72;100.00;98733.06;6268358;27;96668;-58
2024/02/03 11:54:18;;;;;;;;;11.00;10.00;;;;;13.67;100.00;98750.06;6274421;27;96334;-59
2024/02/03 11:57:21;;;;;;;;;11.00;9.40;;;;;13.72;100.00;98739.31;6284787;27;96841;-60
2024/02/03 12:00:24;;;;;;;;;10.00;9.00;;;;;13.60;100.00;98735.00;6269093;27;96568;-60
2024/02/03 12:03:29;;;;;;;;;10.20;10.00;;;;;13.66;100.00;98745.69;6277682;27;96370;-57
2024/02/03 12:06:32;;;;;;;;;9.60;8.60;;;;;13.49;100.00;98730.50;6259360;27;96952;-57
2024/02/03 12:09:35;;;;;;;;;10.60;9.60;;;;;13.52;100.00;98746.25;6262915;27;96392;-59
2024/02/03 12:12:39;;;;;;;;;8.60;8.00;;;;;13.61;100.00;98742.06;6260095;27;96329;-58
2024/02/03 12:15:43;;;;;;;;;9.00;9.00;;;;;13.50;100.00;98741.06;6266003;27;96929;-59
2024/02/03 12:18:48;;;;;;;;;11.40;10.80;;;;;13.55;100.00;98733.03;6261960;28;96374;-58
2024/02/03 12:21:51;;;;;;;;;10.80;9.20;;;;;13.66;100.00;98740.28;6264527;27;96992;-58
2024/02/03 12:24:54;;;;;;;;;8.00;7.60;;;;;13.68;100.00;98740.03;6265072;27;97040;-59
2024/02/03 12:27:58;;;;;;;;;9.60;9.00;;;;;13.54;100.00;98747.63;6269477;27;96206;-57
2024/02/03 12:31:01;;;;;;;;;11.00;10.00;;;;;13.57;100.00;98749.03;6253473;27;96273;-59
2024/02/03 12:34:06;;;;;;;;;9.25;9.00;;;;;13.53;100.00;98748.72;6259283;27;96756;-58
2024/02/03 12:37:09;;;;;;;;;8.25;8.00;;;;;13.47;100.00;98765.13;6261129;27;98049;-59
2024/02/03 12:40:12;;;;;;;;;9.00;8.40;;;;;13.55;100.00;98779.06;6261906;27;96387;-59
2024/02/03 12:43:16;;;;;;;;;9.00;8.40;;;;;13.66;100.00;98778.19;6263329;28;96213;-60
2024/02/03 12:46:20;;;;;;;;;8.00;7.00;;;;;13.60;100.00;98775.63;6264940;27;96790;-60
2024/02/03 12:49:24;;;;;;;;;10.00;9.00;;;;;13.73;100.00;98768.00;6257544;27;96895;-59
2024/02/03 12:52:28;;;;;;;;;8.00;7.00;;;;;13.79;100.00;98763.50;6263868;28;96376;-58
2024/02/03 12:55:31;;;;;;;;;8.00;8.00;;;;;13.96;100.00;98764.34;6261876;27;96736;-57
2024/02/03 12:58:35;;;;;;;;;9.60;9.60;;;;;14.15;100.00;98776.59;6257326;27;96351;-59
2024/02/03 13:01:38;;;;;;;;;9.40;9.40;;;;;14.20;100.00;98770.41;6263927;27;96337;-58
2024/02/03 13:04:42;;;;;;;;;10.00;9.00;;;;;14.07;100.00;98740.94;6272720;27;98623;-59
2024/02/03 13:07:45;;;;;;;;;10.60;10.00;;;;;14.19;100.00;98753.31;6266171;27;97061;-59
2024/02/03 13:10:49;;;;;;;;;10.00;9.25;;;;;14.20;100.00;98757.69;6282495;27;96317;-58
2024/02/03 13:13:52;;;;;;;;;13.00;11.00;;;;;14.28;100.00;98759.13;6292882;27;96479;-59
2024/02/03 13:16:55;;;;;;;;;8.00;8.00;;;;;14.10;100.00;98752.09;6289826;27;97084;-59
2024/02/03 13:19:59;;;;;;;;;8.00;8.00;;;;;14.11;100.00;98767.31;6283634;27;96291;-57
2024/02/03 13:23:03;;;;;;;;;8.60;8.00;;;;;13.89;100.00;98761.78;6275504;27;97015;-59
2024/02/03 13:26:09;;;;;;;;;9.00;9.00;;;;;13.87;100.00;98761.22;6281024;27;96336;-57
2024/02/03 13:29:13;;;;;;;;;9.40;9.00;;;;;13.66;100.00;98750.28;6288947;27;96211;-57
2024/02/03 13:32:16;;;;;;;;;8.00;7.00;;;;;13.59;100.00;98766.69;6287269;27;96397;-60
2024/02/03 13:35:20;;;;;;;;;10.00;9.00;;;;;13.60;100.00;98760.22;6273180;27;98385;-60
2024/02/03 13:38:23;;;;;;;;;8.40;7.40;;;;;13.58;100.00;98773.19;6285266;27;96404;-57
2024/02/03 13:41:26;;;;;;;;;8.00;7.40;;;;;13.35;100.00;98776.81;6273005;27;96481;-59
2024/02/03 13:44:30;;;;;;;;;8.00;7.00;;;;;12.99;100.00;98710.34;6273561;27;96322;-58
2024/02/03 13:47:33;;;;;;;;;7.25;7.00;;;;;13.31;100.00;98772.94;6248652;27;96539;-58
2024/02/03 13:50:37;;;;;;;;;9.00;8.00;;;;;13.32;100.00;98777.31;6251790;27;97179;-58
2024/02/03 13:53:41;;;;;;;;;7.60;7.00;;;;;13.30;100.00;98759.66;6251496;27;96755;-58
2024/02/03 13:56:44;;;;;;;;;8.00;7.00;;;;;13.23;100.00;98764.41;6250553;27;96493;-58
2024/02/03 13:59:47;;;;;;;;;7.00;5.50;;;;;13.18;100.00;98772.41;6253842;27;96615;-58
2024/02/03 14:02:50;;;;;;;;;9.00;8.00;;;;;13.25;100.00;98768.50;6255085;27;96873;-58
2024/02/03 14:05:55;;;;;;;;;7.00;7.00;;;;;13.43;100.00;98767.50;6260441;27;97508;-58
2024/02/03 14:08:58;;;;;;;;;8.60;7.60;;;;;13.42;100.00;98765.84;6263340;27;96311;-58
2024/02/03 14:12:03;;;;;;;;;8.00;7.00;;;;;13.32;100.00;98766.47;6260507;27;96706;-58